Flight Track Log - Related Links

Times and Time Zones

All times are in EDT time to prevent confusion due to time zone crossing. See the N143DE flight status page for this flight to view local times or setup timezone preferences in your user account.

Time Position Orientation Groundspeed Altitude Reporting Facility
EDT Latitude Longitude Course Direction KTS MPH feet Rate Location/Type
Thu 05:58:48 AM 33.6833 -84.4833 320° Northwest 159 183 4,500  Level Atlanta TRACON
Thu 05:59:48 AM 33.7333 -84.5000 345° North 197 227 6,000 1,450 Climbing Atlanta TRACON
Thu 06:00:48 AM 33.7833 -84.4833 15° North 199 229 7,400 1,397 Climbing Atlanta TRACON
Thu 06:02:57 AM 33.8936 -84.4642 North 209 241 10,400 1,333 Climbing Atlanta Center
Thu 06:03:57 AM 33.9583 -84.4444 14° North 204 235 11,600 1,150 Climbing Atlanta Center
Thu 06:04:57 AM 34.0150 -84.4272 14° North 204 235 12,700 1,000 Climbing Atlanta Center
Thu 06:05:57 AM 34.0672 -84.4200 North 204 235 13,600 900 Climbing Atlanta Center
Thu 06:06:57 AM 34.1214 -84.4178 North 199 229 14,500 750 Climbing Atlanta Center
Thu 06:07:57 AM 34.1839 -84.4131 North 199 229 15,100 650 Climbing Atlanta Center
Thu 06:08:57 AM 34.2467 -84.4056 North 216 249 15,800 800 Climbing Atlanta Center
Thu 06:09:57 AM 34.3114 -84.4008 North 221 254 16,700 800 Climbing Atlanta Center
Thu 06:10:57 AM 34.3719 -84.3961 North 216 249 17,400 750 Climbing Atlanta Center
Thu 06:11:57 AM 34.4283 -84.3889 North 216 249 18,200 750 Climbing Atlanta Center
Thu 06:12:57 AM 34.4931 -84.3814 North 216 249 18,900 400 Climbing Atlanta Center
Thu 06:13:57 AM 34.5514 -84.3767 North 211 243 19,000 50 Climbing Atlanta Center
Thu 06:14:57 AM 34.6142 -84.3694 North 216 249 19,000  Level Atlanta Center
Thu 06:15:57 AM 34.6789 -84.3619 North 224 258 19,000  Level Atlanta Center
Thu 06:16:57 AM 34.7433 -84.3547 North 224 258 19,000  Level Atlanta Center
Thu 06:17:57 AM 34.8039 -84.3475 North 229 264 19,000  Level Atlanta Center
Thu 06:18:57 AM 34.8708 -84.3425 North 229 264 19,000  Level Atlanta Center
Thu 06:19:57 AM 34.9272 -84.3378 North 229 264 19,000  Level Atlanta Center
Thu 06:20:57 AM 34.9919 -84.3303 North 229 264 19,000  Level Atlanta Center
Thu 06:21:57 AM 35.0567 -84.3231 North 229 264 19,000  Level Atlanta Center
Thu 06:22:57 AM 35.1214 -84.3156 North 234 269 19,000 50 Level Atlanta Center
Thu 06:23:57 AM 35.1839 -84.3106 North 229 264 19,100  Climbing Atlanta Center
Thu 06:24:57 AM 35.2486 -84.3033 North 229 264 19,000 -50 Descending Atlanta Center
Thu 06:25:57 AM 35.3111 -84.2983 North 229 264 19,000  Level Atlanta Center
Thu 06:26:57 AM 35.3739 -84.2908 North 229 264 19,000 50 Level Atlanta Center
Thu 06:27:57 AM 35.4364 -84.2861 North 229 264 19,100  Climbing Atlanta Center
Thu 06:28:57 AM 35.5011 -84.2786 North 229 264 19,000 -50 Descending Atlanta Center
Thu 06:29:57 AM 35.5636 -84.2711 North 229 264 19,000  Level Atlanta Center
Thu 06:30:57 AM 35.6283 -84.2661 North 229 264 19,000  Level Atlanta Center
Thu 06:31:57 AM 35.6931 -84.2586 North 229 264 19,000  Level Atlanta Center
Thu 06:32:57 AM 35.7556 -84.2486 North 229 264 19,000  Level Atlanta Center
Thu 06:33:57 AM 35.8183 -84.2436 North 229 264 19,000  Level Atlanta Center
Thu 06:34:57 AM 35.8808 -84.2361 North 229 264 19,000  Level Atlanta Center
Thu 06:35:57 AM 35.9456 -84.2311 North 229 264 19,000  Level Atlanta Center
Thu 06:36:57 AM 36.0081 -84.2236 North 229 264 19,000  Level Atlanta Center
Thu 06:37:57 AM 36.0706 -84.2186 North 229 264 19,000  Level Atlanta Center
Thu 06:39:16 AM 36.1550 -84.2053 North 224 258 19,000  Level Indianapolis Center
Thu 06:40:17 AM 36.2172 -84.2008 North 223 257 19,000  Level Indianapolis Center
Thu 06:41:18 AM 36.2781 -84.1917 North 222 255 19,000 49 Level Indianapolis Center
Thu 06:42:19 AM 36.3408 -84.1861 North 225 259 19,100  Climbing Indianapolis Center
Thu 06:43:20 AM 36.4019 -84.1783 North 222 255 19,000 -50 Descending Indianapolis Center
Thu 06:44:20 AM 36.4631 -84.1722 North 222 255 19,000  Level Indianapolis Center
Thu 06:45:21 AM 36.5333 -84.1633 North 221 254 19,000  Level Indianapolis Center
Thu 06:46:22 AM 36.5944 -84.1553 North 220 253 19,000  Level Indianapolis Center
Thu 06:47:23 AM 36.6561 -84.1378 13° North 226 260 19,000 49 Level Indianapolis Center
Thu 06:48:24 AM 36.7167 -84.1297 North 220 253 19,100 49 Climbing Indianapolis Center
Thu 06:49:25 AM 36.7803 -84.1389 353° North 225 259 19,100  Level Indianapolis Center
Thu 06:50:26 AM 36.8439 -84.1275 North 231 266 19,100  Level Indianapolis Center
Thu 06:51:27 AM 36.9067 -84.1206 North 229 264 19,100  Level Indianapolis Center
Thu 06:52:28 AM 36.9692 -84.1139 North 228 262 19,100  Level Indianapolis Center
Thu 06:53:29 AM 37.0325 -84.1072 North 228 262 19,100  Level Indianapolis Center
Thu 06:54:30 AM 37.0953 -84.1014 North 226 260 19,100  Level Indianapolis Center
Thu 06:55:31 AM 37.1592 -84.0958 North 228 262 19,100  Level Indianapolis Center
Thu 06:56:32 AM 37.2336 -84.0906 North 228 262 19,100  Level Indianapolis Center
Thu 06:57:33 AM 37.2972 -84.0831 North 228 262 19,100  Level Indianapolis Center
Thu 06:58:34 AM 37.3608 -84.0808 North 228 262 19,100  Level Indianapolis Center
Thu 06:59:35 AM 37.4244 -84.0736 North 229 264 19,100  Level Indianapolis Center
Thu 07:00:36 AM 37.4875 -84.0686 North 228 262 19,100  Level Indianapolis Center
Thu 07:01:37 AM 37.5519 -84.0633 North 230 265 19,100  Level Indianapolis Center
Thu 07:02:38 AM 37.6169 -84.0572 North 232 267 19,100  Level Indianapolis Center
Thu 07:03:39 AM 37.6811 -84.0506 North 233 268 19,100  Level Indianapolis Center
Thu 07:04:41 AM 37.7447 -84.0453 North 226 260 19,100  Level Indianapolis Center
Thu 07:05:42 AM 37.8097 -84.0372 North 232 267 19,100  Level Indianapolis Center
Thu 07:06:43 AM 37.8719 -84.0322 North 225 259 19,100  Level Indianapolis Center
Thu 07:07:44 AM 37.9308 -84.0456 350° North 217 250 19,100  Level Indianapolis Center
Thu 07:08:45 AM 37.9975 -84.0739 341° North 218 251 19,100 -738 Level Indianapolis Center
Thu 07:09:46 AM 38.0608 -84.0950 345° North 235 270 17,600 -1,475 Descending Indianapolis Center
Thu 07:10:47 AM 38.1286 -84.1208 343° North 255 293 16,100 -1,561 Descending Indianapolis Center
Thu 07:11:49 AM 38.1994 -84.1442 345° North 261 300 14,400 -1,610 Descending Indianapolis Center
Thu 07:12:50 AM 38.2700 -84.1686 345° North 262 302 12,800 -1,377 Descending Indianapolis Center
Thu 07:13:51 AM 38.3411 -84.1936 345° North 267 307 11,600 -885 Descending Indianapolis Center
Thu 07:14:52 AM 38.4083 -84.2192 343° North 254 292 11,000 -295 Descending Indianapolis Center
Thu 07:15:53 AM 38.4733 -84.2364 348° North 238 274 11,000  Level Indianapolis Center
Thu 07:16:54 AM 38.5333 -84.2614 342° North 227 261 11,000  Level Indianapolis Center
Thu 07:17:55 AM 38.5956 -84.2861 343° North 232 267 11,000  Level Indianapolis Center
Thu 07:18:56 AM 38.6533 -84.3097 342° North 231 266 11,000  Level Indianapolis Center
Thu 07:19:58 AM 38.7183 -84.3508 334° Northwest 223 257 11,000  Level Indianapolis Center
Thu 07:20:59 AM 38.7714 -84.3908 330° Northwest 219 252 11,000 -541 Level Indianapolis Center
Thu 07:22:00 AM 38.8117 -84.4572 308° West 228 262 9,900 -984 Descending Indianapolis Center
Thu 07:23:01 AM 38.8486 -84.5275 304° West 237 273 9,000 -443 Descending Indianapolis Center
Thu 07:24:02 AM 38.9194 -84.5192 North 237 273 9,000  Level Indianapolis Center
Thu 07:25:03 AM 38.9794 -84.5239 356° North 219 252 9,000 -585 Level Indianapolis Center
Thu 07:26:05 AM 39.0417 -84.5356 352° North 220 253 7,800 -1,366 Descending Indianapolis Center
Thu 07:27:06 AM 39.1111 -84.5497 351° North 242 278 6,200 -1,623 Descending Indianapolis Center
Thu 07:28:07 AM 39.1775 -84.5622 352° North 242 278 4,500 -1,426 Descending Indianapolis Center
Thu 07:29:08 AM 39.2289 -84.6156 321° Northwest 242 278 3,300 -577 Descending Indianapolis Center
Thu 07:30:43 AM 39.1667 -84.6500 203° Southwest 145 167 3,000 -189 Descending Cincinnati TRACON

Login

Don't have an account? Register now (free) for customized features, flight alerts, and more!